createdAt,value
2023-02-11T00:00:16.159Z,17.85
2023-02-11T00:02:58.263Z,18.65
2023-02-11T00:05:40.475Z,18.08
2023-02-11T00:08:29.140Z,18.20
2023-02-11T00:11:11.430Z,18.15
2023-02-11T00:14:00.562Z,17.50
2023-02-11T00:16:42.537Z,17.35
2023-02-11T00:19:31.155Z,17.55
2023-02-11T00:22:20.176Z,15.75
2023-02-11T00:25:02.513Z,14.52
2023-02-11T00:27:52.221Z,15.00
2023-02-11T00:30:48.132Z,14.95
2023-02-11T00:33:37.188Z,14.75
2023-02-11T00:36:25.425Z,14.98
2023-02-11T00:39:16.143Z,13.73
2023-02-11T00:41:58.401Z,12.77
2023-02-11T00:44:47.207Z,11.45
2023-02-11T00:47:29.370Z,12.48
2023-02-11T00:50:18.190Z,12.13
2023-02-11T00:53:00.674Z,11.73
2023-02-11T00:55:49.350Z,11.90
2023-02-11T00:58:33.538Z,10.90
2023-02-11T01:01:22.197Z,10.27
2023-02-11T01:04:04.424Z,8.32
2023-02-11T01:06:53.193Z,8.07
2023-02-11T01:09:42.135Z,8.05
2023-02-11T01:12:33.980Z,6.63
2023-02-11T01:15:28.143Z,6.70
2023-02-11T01:18:17.166Z,6.75
2023-02-11T01:21:01.486Z,6.70
2023-02-11T01:23:50.158Z,6.78
2023-02-11T01:26:32.442Z,6.35
2023-02-11T01:29:21.109Z,6.13
2023-02-11T01:32:10.499Z,6.03
2023-02-11T01:34:53.258Z,5.65
2023-02-11T01:37:42.940Z,5.88
2023-02-11T01:40:27.154Z,6.68
2023-02-11T01:43:19.381Z,5.93
2023-02-11T01:46:11.243Z,5.80
2023-02-11T01:49:19.514Z,5.57
2023-02-11T01:52:09.258Z,4.88
2023-02-11T01:55:23.372Z,5.05
2023-02-11T01:58:09.118Z,6.00
2023-02-11T02:00:58.383Z,5.75
2023-02-11T02:03:44.175Z,8.02
2023-02-11T02:06:55.396Z,7.50
2023-02-11T02:09:42.217Z,7.97
2023-02-11T02:12:30.398Z,8.88
2023-02-11T02:15:34.133Z,9.60
2023-02-11T02:21:39.412Z,10.95
2023-02-11T02:24:41.447Z,11.38
2023-02-11T02:27:38.168Z,10.90
2023-02-11T02:30:33.191Z,11.07
2023-02-11T02:33:36.454Z,10.23
2023-02-11T02:36:46.266Z,9.98
2023-02-11T02:39:34.384Z,10.75
2023-02-11T02:42:24.211Z,11.40
2023-02-11T02:45:06.375Z,10.50
2023-02-11T02:47:55.113Z,9.82
2023-02-11T02:50:43.426Z,8.30
2023-02-11T02:54:03.171Z,10.63
2023-02-11T02:57:02.468Z,10.15
2023-02-11T03:00:28.155Z,11.13
2023-02-11T03:03:18.431Z,13.93
2023-02-11T03:06:30.118Z,13.80
2023-02-11T03:09:28.520Z,15.63
2023-02-11T03:12:18.179Z,16.08
2023-02-11T03:15:01.498Z,16.27
2023-02-11T03:17:54.139Z,17.60
2023-02-11T03:20:45.136Z,18.67
2023-02-11T03:23:48.160Z,17.15
2023-02-11T03:26:39.389Z,18.40
2023-02-11T03:29:45.139Z,18.20
2023-02-11T03:32:47.022Z,17.05
2023-02-11T03:35:48.464Z,18.02
2023-02-11T03:38:37.400Z,18.48
2023-02-11T03:41:31.127Z,17.80
2023-02-11T03:44:15.363Z,17.40
2023-02-11T03:47:04.065Z,19.58
2023-02-11T03:49:49.430Z,22.10
2023-02-11T03:52:39.103Z,21.23
2023-02-11T03:55:26.980Z,16.73
2023-02-11T03:58:16.080Z,18.88
2023-02-11T04:00:58.511Z,18.85
2023-02-11T04:03:47.379Z,17.50
2023-02-11T04:06:29.488Z,17.00
2023-02-11T04:09:18.125Z,16.33
2023-02-11T04:12:00.434Z,15.90
2023-02-11T04:14:49.160Z,14.93
2023-02-11T04:17:38.168Z,13.63
2023-02-11T04:20:27.136Z,11.88
2023-02-11T04:23:09.363Z,10.43
2023-02-11T04:25:59.078Z,9.05
2023-02-11T04:28:48.120Z,8.80
2023-02-11T04:31:44.159Z,7.88
2023-02-11T04:34:33.125Z,6.55
2023-02-11T04:37:15.478Z,6.85
2023-02-11T04:40:04.121Z,7.85
2023-02-11T04:42:46.398Z,6.95
2023-02-11T04:45:35.483Z,7.40
2023-02-11T04:48:17.444Z,7.22
2023-02-11T04:51:06.161Z,7.38
2023-02-11T04:53:49.488Z,7.40
2023-02-11T04:56:38.068Z,8.40
2023-02-11T04:59:20.445Z,8.52
2023-02-11T05:02:09.166Z,8.48
2023-02-11T05:04:51.475Z,9.25
2023-02-11T05:07:40.087Z,8.60
2023-02-11T05:10:22.401Z,10.07
2023-02-11T05:13:11.232Z,10.20
2023-02-11T05:15:53.548Z,8.88
2023-02-11T05:18:42.154Z,10.50
2023-02-11T05:21:27.478Z,9.90
2023-02-11T05:24:16.101Z,10.40
2023-02-11T05:27:05.137Z,9.27
2023-02-11T05:29:48.374Z,8.48
2023-02-11T05:32:37.223Z,11.07
2023-02-11T05:35:26.400Z,8.43
2023-02-11T05:38:08.085Z,7.82
2023-02-11T05:40:50.289Z,8.23
2023-02-11T05:43:39.136Z,8.52
2023-02-11T05:46:21.470Z,10.98
2023-02-11T05:49:10.058Z,9.55
2023-02-11T05:51:52.408Z,9.48
2023-02-11T05:54:41.501Z,9.15
2023-02-11T05:57:29.446Z,10.35
2023-02-11T06:00:13.119Z,8.30
2023-02-11T06:03:02.025Z,7.72
2023-02-11T06:05:51.351Z,8.45
2023-02-11T06:08:39.524Z,9.48
2023-02-11T06:11:24.203Z,8.05
2023-02-11T06:14:12.459Z,7.43
2023-02-11T06:16:55.106Z,8.57
2023-02-11T06:19:43.404Z,7.32
2023-02-11T06:22:26.104Z,9.10
2023-02-11T06:25:15.584Z,7.47
2023-02-11T06:27:58.181Z,7.78
2023-02-11T06:30:54.173Z,6.38
2023-02-11T06:33:43.398Z,5.88
2023-02-11T06:36:29.176Z,6.80
2023-02-11T06:39:20.841Z,6.38
2023-02-11T06:42:05.368Z,7.50
2023-02-11T06:44:56.558Z,5.82
2023-02-11T06:47:38.071Z,5.95
2023-02-11T06:50:27.522Z,6.65
2023-02-11T06:53:10.166Z,6.85
2023-02-11T06:55:58.449Z,6.35
2023-02-11T06:58:41.489Z,5.65
2023-02-11T07:01:31.522Z,5.53
2023-02-11T07:04:14.167Z,5.65
2023-02-11T07:06:56.480Z,5.80
2023-02-11T07:09:45.232Z,6.93
2023-02-11T07:12:33.511Z,6.05
2023-02-11T07:15:16.137Z,5.88
2023-02-11T07:18:05.444Z,4.93
2023-02-11T07:20:48.115Z,5.35
2023-02-11T07:23:30.347Z,6.43
2023-02-11T07:26:24.184Z,4.90
2023-02-11T07:29:13.639Z,6.13
2023-02-11T07:32:02.136Z,5.22
2023-02-11T07:34:44.532Z,4.70
2023-02-11T07:37:33.163Z,4.85
2023-02-11T07:40:16.413Z,5.88
2023-02-11T07:43:05.163Z,4.50
2023-02-11T07:45:47.318Z,3.70
2023-02-11T07:48:36.177Z,4.10
2023-02-11T07:51:22.450Z,3.42
2023-02-11T07:54:11.117Z,4.55
2023-02-11T07:56:53.481Z,3.83
2023-02-11T07:59:42.109Z,4.88
2023-02-11T08:02:24.591Z,4.80
2023-02-11T08:05:13.164Z,3.80
2023-02-11T08:07:58.400Z,4.38
2023-02-11T08:10:47.172Z,5.25
2023-02-11T08:13:29.401Z,3.25
2023-02-11T08:16:18.173Z,3.28
2023-02-11T08:19:02.658Z,3.28
2023-02-11T08:21:52.178Z,3.30
2023-02-11T08:24:34.346Z,3.15
2023-02-11T08:27:23.151Z,3.13
2023-02-11T08:30:05.458Z,3.53
2023-02-11T08:32:54.129Z,3.30
2023-02-11T08:35:36.471Z,2.78
2023-02-11T08:38:25.123Z,4.13
2023-02-11T08:41:09.000Z,3.83
2023-02-11T08:43:58.260Z,3.65
2023-02-11T08:46:40.479Z,3.08
2023-02-11T08:49:30.118Z,3.63
2023-02-11T08:52:12.396Z,2.92
2023-02-11T08:55:01.173Z,3.05
2023-02-11T08:57:43.448Z,3.33
2023-02-11T09:00:32.154Z,3.50
2023-02-11T09:03:14.375Z,3.75
2023-02-11T09:06:03.127Z,2.42
2023-02-11T09:08:51.487Z,3.28
2023-02-11T09:11:43.131Z,4.00
2023-02-11T09:14:30.487Z,3.08
2023-02-11T09:17:19.140Z,3.33
2023-02-11T09:20:01.329Z,4.00
2023-02-11T09:22:50.159Z,3.10
2023-02-11T09:25:33.441Z,3.20
2023-02-11T09:28:22.486Z,3.17
2023-02-11T09:31:04.500Z,3.92
2023-02-11T09:33:58.107Z,3.55
2023-02-11T09:36:43.391Z,2.97
2023-02-11T09:39:34.232Z,2.83
2023-02-11T09:43:03.090Z,3.22
2023-02-11T09:46:04.154Z,3.65
2023-02-11T09:48:50.317Z,3.15
2023-02-11T09:51:50.150Z,2.70
2023-02-11T09:55:05.391Z,3.70
2023-02-11T09:57:53.361Z,2.65
2023-02-11T10:00:46.024Z,3.72
2023-02-11T10:04:07.341Z,3.55
2023-02-11T10:06:50.148Z,2.40
2023-02-11T10:09:41.431Z,2.87
2023-02-11T10:12:59.220Z,2.55
2023-02-11T10:16:05.937Z,4.68
2023-02-11T10:19:17.154Z,2.67
2023-02-11T10:22:33.151Z,2.17
2023-02-11T10:25:35.446Z,3.85
2023-02-11T10:28:30.208Z,2.50
2023-02-11T10:31:19.727Z,2.50
2023-02-11T10:34:14.519Z,2.22
2023-02-11T10:36:56.381Z,1.85
2023-02-11T10:39:47.141Z,2.10
2023-02-11T10:42:29.405Z,2.10
2023-02-11T10:45:32.085Z,2.85
2023-02-11T10:48:35.819Z,2.08
2023-02-11T10:51:28.127Z,2.60
2023-02-11T10:54:20.257Z,3.47
2023-02-11T10:57:09.080Z,2.42
2023-02-11T10:59:51.500Z,2.67
2023-02-11T11:02:44.043Z,3.17
2023-02-11T11:05:31.510Z,3.13
2023-02-11T11:08:21.218Z,2.45
2023-02-11T11:11:11.384Z,2.53
2023-02-11T11:14:04.115Z,5.25
2023-02-11T11:16:46.318Z,3.83
2023-02-11T11:19:35.164Z,2.50
2023-02-11T11:22:30.457Z,2.90
2023-02-11T11:25:35.037Z,2.63
2023-02-11T11:28:31.414Z,2.47
2023-02-11T11:31:42.264Z,2.90
2023-02-11T11:34:40.825Z,2.83
2023-02-11T11:37:36.417Z,3.25
2023-02-11T11:40:21.872Z,3.13
2023-02-11T11:43:23.213Z,3.13
2023-02-11T11:46:08.820Z,3.25
2023-02-11T11:49:00.120Z,2.78
2023-02-11T11:51:44.500Z,3.47
2023-02-11T11:54:36.113Z,3.30
2023-02-11T11:57:26.420Z,3.72
2023-02-11T12:00:43.119Z,3.38
2023-02-11T12:03:43.447Z,3.75
2023-02-11T12:06:59.111Z,3.85
2023-02-11T12:09:44.313Z,3.88
2023-02-11T12:12:40.082Z,3.70
2023-02-11T12:15:44.432Z,3.78
2023-02-11T12:18:51.084Z,3.50
2023-02-11T12:21:39.582Z,3.83
2023-02-11T12:24:37.009Z,3.80
2023-02-11T12:27:52.997Z,4.35
2023-02-11T12:31:00.089Z,4.18
2023-02-11T12:34:32.031Z,5.03
2023-02-11T12:37:22.988Z,4.15
2023-02-11T12:40:29.047Z,4.95
2023-02-11T12:43:35.391Z,5.25
2023-02-11T12:46:47.059Z,4.45
2023-02-11T12:49:42.360Z,4.47
2023-02-11T12:52:53.432Z,4.53
2023-02-11T12:55:51.403Z,5.32
2023-02-11T12:58:44.899Z,4.95
2023-02-11T13:01:39.493Z,5.10
2023-02-11T13:04:29.108Z,5.03
2023-02-11T13:07:28.100Z,5.30
2023-02-11T13:10:31.007Z,6.72
2023-02-11T13:13:32.133Z,6.38
2023-02-11T13:16:35.635Z,5.95
2023-02-11T13:19:44.100Z,6.30
2023-02-11T13:22:58.251Z,5.72
2023-02-11T13:26:03.117Z,5.93
2023-02-11T13:29:10.073Z,5.70
2023-02-11T13:32:24.926Z,6.57
2023-02-11T13:35:44.006Z,8.38
2023-02-11T13:38:33.113Z,6.05
2023-02-11T13:41:24.562Z,6.25
2023-02-11T13:44:17.172Z,6.85
2023-02-11T13:47:12.603Z,7.07
2023-02-11T13:50:01.128Z,7.88
2023-02-11T13:52:50.418Z,9.50
2023-02-11T13:55:35.383Z,10.30
2023-02-11T13:58:27.553Z,10.75
2023-02-11T14:01:10.118Z,12.20
2023-02-11T14:04:39.098Z,10.23
2023-02-11T14:08:02.079Z,11.32
2023-02-11T14:10:51.551Z,11.30
2023-02-11T14:13:42.112Z,10.85
2023-02-11T14:16:38.362Z,12.45
2023-02-11T14:19:39.063Z,11.98
2023-02-11T14:22:48.511Z,12.35
2023-02-11T14:25:35.184Z,12.68
2023-02-11T14:28:35.862Z,15.27
2023-02-11T14:31:29.256Z,13.55
2023-02-11T14:34:59.013Z,14.70
2023-02-11T14:38:06.482Z,13.38
2023-02-11T14:41:03.056Z,14.35
2023-02-11T14:43:49.712Z,14.40
2023-02-11T14:46:41.053Z,16.30
2023-02-11T14:49:34.337Z,17.02
2023-02-11T14:52:32.194Z,17.60
2023-02-11T14:55:39.052Z,16.58
2023-02-11T14:58:32.351Z,17.70
2023-02-11T15:01:39.528Z,18.77
2023-02-11T15:04:38.074Z,18.70
2023-02-11T15:07:27.484Z,19.88
2023-02-11T15:10:11.115Z,21.83
2023-02-11T15:13:00.458Z,21.77
2023-02-11T15:15:45.165Z,21.98
2023-02-11T15:18:41.690Z,22.92
2023-02-11T15:21:36.092Z,20.92
2023-02-11T15:24:42.084Z,21.73
2023-02-11T15:27:30.462Z,22.55
2023-02-11T15:30:29.167Z,23.65
2023-02-11T15:33:33.786Z,21.40
2023-02-11T15:36:20.140Z,20.63
2023-02-11T15:39:39.474Z,21.27
2023-02-11T15:42:52.781Z,20.52
2023-02-11T15:45:49.415Z,19.27
2023-02-11T15:48:46.169Z,21.35
2023-02-11T15:51:46.467Z,20.52
2023-02-11T15:54:32.076Z,21.75
2023-02-11T15:57:21.339Z,20.70
2023-02-11T16:00:04.096Z,23.77
2023-02-11T16:02:58.149Z,25.83
2023-02-11T16:05:46.334Z,25.27
2023-02-11T16:08:38.365Z,24.38
2023-02-11T16:11:42.301Z,23.65
2023-02-11T16:14:47.043Z,23.38
2023-02-11T16:17:37.521Z,24.30
2023-02-11T16:20:28.155Z,22.35
2023-02-11T16:23:12.468Z,24.73
2023-02-11T16:26:29.154Z,24.33
2023-02-11T16:29:23.496Z,25.92
2023-02-11T16:32:34.040Z,26.95
2023-02-11T16:35:22.318Z,27.30
2023-02-11T16:38:05.101Z,26.35
2023-02-11T16:40:54.449Z,23.93
2023-02-11T16:43:37.158Z,23.67
2023-02-11T16:46:28.485Z,24.52
2023-02-11T16:49:33.027Z,24.65
2023-02-11T16:52:24.382Z,25.98
2023-02-11T16:55:08.741Z,29.48
2023-02-11T16:57:59.505Z,27.98
2023-02-11T17:00:42.083Z,27.02
2023-02-11T17:03:38.649Z,27.92
2023-02-11T17:06:22.179Z,27.83
2023-02-11T17:09:10.440Z,27.90
2023-02-11T17:11:53.081Z,33.28
2023-02-11T17:14:42.518Z,26.02
2023-02-11T17:17:25.048Z,26.80
2023-02-11T17:20:14.744Z,26.17
2023-02-11T17:22:58.048Z,27.98
2023-02-11T17:25:47.339Z,28.53
2023-02-11T17:28:30.084Z,27.17
2023-02-11T17:31:19.479Z,26.65
2023-02-11T17:34:14.044Z,26.00
2023-02-11T17:37:08.679Z,25.90
2023-02-11T17:39:51.967Z,26.25
2023-02-11T17:42:40.773Z,29.63
2023-02-11T17:45:24.120Z,29.50
2023-02-11T17:48:13.005Z,28.52
2023-02-11T17:51:02.225Z,29.20
2023-02-11T17:53:51.432Z,28.33
2023-02-11T17:56:34.118Z,30.67
2023-02-11T17:59:22.403Z,27.83
2023-02-11T18:02:05.087Z,28.05
2023-02-11T18:04:56.542Z,29.27
2023-02-11T18:07:39.129Z,28.17
2023-02-11T18:10:21.361Z,28.17
2023-02-11T18:13:10.115Z,30.75
2023-02-11T18:15:58.364Z,30.73
2023-02-11T18:18:41.111Z,28.52
2023-02-11T18:21:30.259Z,29.65
2023-02-11T18:24:13.500Z,30.92
2023-02-11T18:27:01.473Z,29.87
2023-02-11T18:29:44.040Z,30.13
2023-02-11T18:32:39.917Z,30.77
2023-02-11T18:35:29.086Z,31.45
2023-02-11T18:38:11.272Z,29.80
2023-02-11T18:41:00.050Z,29.60
2023-02-11T18:43:44.060Z,30.65
2023-02-11T18:46:32.976Z,30.23
2023-02-11T18:49:15.618Z,31.42
2023-02-11T18:52:06.068Z,34.33
2023-02-11T18:54:48.516Z,37.63
2023-02-11T18:57:38.041Z,41.20
2023-02-11T19:00:21.412Z,41.63
2023-02-11T19:03:11.106Z,44.35
2023-02-11T19:05:56.329Z,43.72
2023-02-11T19:08:45.072Z,45.17
2023-02-11T19:11:46.003Z,46.63
2023-02-11T19:14:38.988Z,45.53
2023-02-11T19:17:21.356Z,44.88
2023-02-11T19:20:09.995Z,46.58
2023-02-11T19:22:52.405Z,47.20
2023-02-11T19:25:40.998Z,47.85
2023-02-11T19:28:23.404Z,48.47
2023-02-11T19:31:17.533Z,48.92
2023-02-11T19:36:49.016Z,49.13
2023-02-11T19:42:20.076Z,52.47
2023-02-11T19:45:11.021Z,49.88
2023-02-11T19:47:54.050Z,51.03
2023-02-11T19:50:43.437Z,52.58
2023-02-11T19:53:25.096Z,49.97
2023-02-11T19:56:15.459Z,50.53
2023-02-11T19:58:58.067Z,51.42
2023-02-11T20:01:40.323Z,52.58
2023-02-11T20:04:32.096Z,50.45
2023-02-11T20:07:20.282Z,48.25
2023-02-11T20:10:03.076Z,48.42
2023-02-11T20:12:51.338Z,50.97
2023-02-11T20:15:34.090Z,48.30
2023-02-11T20:18:22.322Z,50.13
2023-02-11T20:21:04.056Z,48.78
2023-02-11T20:23:54.340Z,47.88
2023-02-11T20:26:41.021Z,48.17
2023-02-11T20:29:32.212Z,48.58
2023-02-11T20:32:16.419Z,51.33
2023-02-11T20:35:04.304Z,52.70
2023-02-11T20:37:47.295Z,55.00
2023-02-11T20:40:35.326Z,56.90
2023-02-11T20:43:18.035Z,60.10
2023-02-11T20:46:16.102Z,71.82
2023-02-11T20:48:59.409Z,69.47
2023-02-11T20:51:48.003Z,74.25
2023-02-11T20:54:37.949Z,80.90
2023-02-11T20:57:27.054Z,78.93
2023-02-11T21:00:10.744Z,75.50
2023-02-11T21:03:03.034Z,73.60
2023-02-11T21:05:45.262Z,75.90
2023-02-11T21:08:34.088Z,71.57
2023-02-11T21:11:22.990Z,71.97
2023-02-11T21:14:12.017Z,71.65
2023-02-11T21:16:55.307Z,72.38
2023-02-11T21:19:44.092Z,72.88
2023-02-11T21:22:26.298Z,74.57
2023-02-11T21:25:16.064Z,74.72
2023-02-11T21:27:58.446Z,77.28
2023-02-11T21:30:48.028Z,78.40
2023-02-11T21:33:31.352Z,77.97
2023-02-11T21:36:19.958Z,77.38
2023-02-11T21:39:02.899Z,76.25
2023-02-11T21:41:51.995Z,78.93
2023-02-11T21:44:34.259Z,75.63
2023-02-11T21:47:23.004Z,75.32
2023-02-11T21:50:05.233Z,77.03
2023-02-11T21:52:54.099Z,76.97
2023-02-11T21:55:36.308Z,76.38
2023-02-11T21:58:24.957Z,78.40
2023-02-11T22:01:14.054Z,76.03
2023-02-11T22:03:56.326Z,73.75
2023-02-11T22:06:48.036Z,71.38
2023-02-11T22:09:37.121Z,73.68
2023-02-11T22:12:19.262Z,69.95
2023-02-11T22:15:07.999Z,71.72
2023-02-11T22:17:50.234Z,70.68
2023-02-11T22:20:39.077Z,73.88
2023-02-11T22:23:21.345Z,70.32
2023-02-11T22:26:15.981Z,73.30
2023-02-11T22:28:59.309Z,73.45
2023-02-11T22:31:48.035Z,75.68
2023-02-11T22:34:42.815Z,70.68
2023-02-11T22:37:31.984Z,72.72
2023-02-11T22:40:15.285Z,74.18
2023-02-11T22:43:04.057Z,78.68
2023-02-11T22:45:46.411Z,82.10
2023-02-11T22:48:34.938Z,80.82
2023-02-11T22:51:26.976Z,81.25
2023-02-11T22:54:19.917Z,74.47
2023-02-11T22:57:09.862Z,70.57
2023-02-11T22:59:58.931Z,73.07
2023-02-11T23:02:41.227Z,70.72
2023-02-11T23:05:31.993Z,68.03
2023-02-11T23:08:19.214Z,67.00
2023-02-11T23:11:19.908Z,69.25
2023-02-11T23:14:09.975Z,66.28
2023-02-11T23:16:59.182Z,68.78
2023-02-11T23:19:41.227Z,67.15
2023-02-11T23:22:29.978Z,69.15
2023-02-11T23:25:19.003Z,66.80
2023-02-11T23:28:07.962Z,68.00
2023-02-11T23:30:50.307Z,63.65
2023-02-11T23:33:38.972Z,63.78
2023-02-11T23:36:29.092Z,61.35
2023-02-11T23:39:21.299Z,59.78
2023-02-11T23:42:06.998Z,56.92
2023-02-11T23:44:55.876Z,53.70
2023-02-11T23:47:44.909Z,55.75
2023-02-11T23:50:33.912Z,50.42
2023-02-11T23:53:16.267Z,48.67
2023-02-11T23:56:05.004Z,49.75
2023-02-11T23:58:53.963Z,47.70
